Time;durP1;ratioP1;P1;durP2;ratioP2;P2;SDS_P1;SDS_P2;PMS_P1;PMS_P2;Temp;Humidity;BMP_temperature;BMP_pressure;BME280_temperature;BME280_humidity;BME280_pressure;Samples;Min_cycle;Max_cycle;Signal;HPM_P1;HPM_P2
2023/04/04 00:00:16;;;;;;;11.27;3.45;;;0.30;99.90;;;;;;5002445;28;20036;-80
2023/04/04 00:02:42;;;;;;;10.38;3.25;;;0.30;99.90;;;;;;5002575;28;20056;-80
2023/04/04 00:05:08;;;;;;;8.32;3.08;;;0.20;99.90;;;;;;5017278;28;20050;-80
2023/04/04 00:07:34;;;;;;;8.50;3.00;;;0.00;99.90;;;;;;5022837;28;20076;-80
2023/04/04 00:09:59;;;;;;;6.75;3.63;;;0.00;99.90;;;;;;5010394;28;20083;-79
2023/04/04 00:12:25;;;;;;;8.50;3.10;;;0.10;99.90;;;;;;5006951;28;20056;-80
2023/04/04 00:14:51;;;;;;;5.53;2.58;;;-0.20;99.90;;;;;;5000012;28;20034;-80
2023/04/04 00:17:16;;;;;;;3.88;2.83;;;-0.20;99.90;;;;;;5000201;28;20461;-80
2023/04/04 00:19:42;;;;;;;10.20;3.10;;;-0.20;99.90;;;;;;5004988;28;20040;-80
2023/04/04 00:22:08;;;;;;;6.35;2.83;;;-0.10;99.90;;;;;;5000476;28;20041;-80
2023/04/04 00:24:34;;;;;;;11.40;3.70;;;-0.10;99.90;;;;;;5016292;28;20517;-80
2023/04/04 00:27:00;;;;;;;8.88;3.22;;;-0.30;99.90;;;;;;4996299;28;20034;-80
2023/04/04 00:29:25;;;;;;;9.75;3.33;;;-0.80;99.90;;;;;;5019290;28;20030;-80
2023/04/04 00:31:53;;;;;;;11.23;3.70;;;-0.30;99.90;;;;;;5007586;28;20022;-80
2023/04/04 00:34:19;;;;;;;5.18;2.88;;;-0.40;99.90;;;;;;5004037;28;20026;-80
2023/04/04 00:36:45;;;;;;;8.25;3.13;;;-0.30;99.90;;;;;;5004100;28;20044;-80
2023/04/04 00:39:10;;;;;;;6.65;3.08;;;-0.10;99.90;;;;;;5003276;28;20041;-80
2023/04/04 00:41:36;;;;;;;5.20;2.20;;;0.10;99.90;;;;;;5019517;28;20088;-80
2023/04/04 00:44:02;;;;;;;6.18;3.10;;;-0.30;99.90;;;;;;4992631;28;20572;-80
2023/04/04 00:46:28;;;;;;;9.95;3.15;;;-0.10;99.90;;;;;;4995764;28;20052;-80
2023/04/04 00:48:54;;;;;;;6.13;2.35;;;-0.20;99.90;;;;;;5020793;28;20045;-80
2023/04/04 00:51:19;;;;;;;6.28;3.08;;;-0.90;99.90;;;;;;5019718;28;20440;-80
2023/04/04 00:53:45;;;;;;;7.70;3.65;;;-0.40;99.90;;;;;;5019917;28;21107;-80
2023/04/04 00:56:11;;;;;;;8.40;3.28;;;-0.50;99.90;;;;;;5009578;28;20083;-80
2023/04/04 00:58:36;;;;;;;6.00;2.90;;;-0.50;99.90;;;;;;5021737;28;20107;-80
2023/04/04 01:01:02;;;;;;;6.40;2.63;;;-0.60;99.90;;;;;;5013196;28;20025;-80
2023/04/04 01:03:28;;;;;;;5.63;2.60;;;-0.40;99.90;;;;;;5004430;28;20076;-80
2023/04/04 01:05:54;;;;;;;8.50;2.97;;;0.40;99.90;;;;;;4994187;28;20141;-80
2023/04/04 01:08:21;;;;;;;4.78;2.80;;;-0.30;99.90;;;;;;5008301;28;20037;-80
2023/04/04 01:10:47;;;;;;;5.57;2.85;;;-0.30;99.90;;;;;;5007448;28;20120;-80
2023/04/04 01:13:14;;;;;;;7.25;2.80;;;-0.40;99.90;;;;;;4998735;28;20120;-80
2023/04/04 01:15:40;;;;;;;4.88;2.53;;;-0.60;99.90;;;;;;5034599;28;20057;-80
2023/04/04 01:18:05;;;;;;;6.90;2.78;;;-1.00;99.90;;;;;;5019450;28;20488;-81
2023/04/04 01:20:31;;;;;;;9.68;2.78;;;-0.50;99.90;;;;;;5020654;28;20511;-80
2023/04/04 01:22:56;;;;;;;6.05;2.70;;;-0.60;99.90;;;;;;5024990;28;20367;-80
2023/04/04 01:25:31;;;;;;;7.20;2.78;;;-0.60;99.90;;;;;;5027885;28;20497;-80
2023/04/04 01:27:59;;;;;;;6.43;3.25;;;-0.70;99.90;;;;;;5008483;28;20476;-80
2023/04/04 01:30:30;;;;;;;4.38;2.95;;;-1.00;99.90;;;;;;5008622;28;20026;-80
2023/04/04 01:33:28;;;;;;;9.48;3.35;;;-1.00;99.90;;;;;;5034493;28;20061;-81
2023/04/04 01:36:27;;;;;;;7.00;3.38;;;-1.00;99.90;;;;;;5006500;28;20030;-79
2023/04/04 01:38:56;;;;;;;9.90;3.45;;;-1.00;99.90;;;;;;5010038;28;20764;-80
2023/04/04 01:41:23;;;;;;;7.32;3.00;;;-1.10;99.90;;;;;;5024537;28;20071;-80
2023/04/04 01:43:49;;;;;;;5.18;3.38;;;-1.20;99.90;;;;;;5028107;28;20107;-80
2023/04/04 01:46:16;;;;;;;6.78;3.15;;;-1.20;99.90;;;;;;5006009;28;20076;-80
2023/04/04 01:48:44;;;;;;;5.43;3.08;;;-1.00;99.90;;;;;;5022535;28;20072;-80
2023/04/04 01:51:10;;;;;;;8.07;3.65;;;-1.30;99.90;;;;;;5006113;28;20375;-80
2023/04/04 01:53:36;;;;;;;5.72;2.85;;;-1.30;99.90;;;;;;5008856;28;20066;-81
2023/04/04 01:56:04;;;;;;;12.35;3.53;;;0.00;99.90;;;;;;5002313;28;20029;-81
2023/04/04 01:58:30;;;;;;;6.25;3.35;;;-1.20;99.90;;;;;;5012783;28;20038;-80
2023/04/04 02:00:56;;;;;;;6.72;3.83;;;-1.30;99.90;;;;;;5030835;28;20380;-79
2023/04/04 02:03:21;;;;;;;5.43;3.08;;;-1.10;99.90;;;;;;5011484;28;20498;-80
2023/04/04 02:05:47;;;;;;;6.28;3.72;;;-1.00;99.90;;;;;;5004884;28;20065;-81
2023/04/04 02:08:14;;;;;;;7.85;3.35;;;-1.30;99.90;;;;;;5011024;28;20468;-80
2023/04/04 02:10:39;;;;;;;7.63;3.40;;;-1.40;99.90;;;;;;5009334;28;20721;-80
2023/04/04 02:13:05;;;;;;;6.63;3.50;;;-1.30;99.90;;;;;;4997260;28;20056;-80
2023/04/04 02:15:33;;;;;;;7.63;3.67;;;-0.40;99.90;;;;;;5036580;28;20032;-80
2023/04/04 02:17:58;;;;;;;8.27;3.20;;;-1.50;99.90;;;;;;5012160;28;20030;-79
2023/04/04 02:20:24;;;;;;;8.00;3.95;;;-1.70;99.90;;;;;;5009512;28;20045;-80
2023/04/04 02:22:52;;;;;;;11.13;3.85;;;-1.80;99.90;;;;;;5011896;28;20064;-80
2023/04/04 02:25:21;;;;;;;9.43;3.33;;;-1.80;99.90;;;;;;4996916;28;20516;-81
2023/04/04 02:27:46;;;;;;;8.15;3.42;;;-1.80;99.90;;;;;;5019401;28;20034;-81
2023/04/04 02:30:12;;;;;;;6.72;4.18;;;-2.10;99.90;;;;;;5011195;28;20034;-80
2023/04/04 02:32:38;;;;;;;8.10;3.35;;;-1.70;99.90;;;;;;5014698;28;20030;-81
2023/04/04 02:35:04;;;;;;;10.48;3.88;;;-2.00;99.90;;;;;;4998800;28;20029;-81
2023/04/04 02:37:30;;;;;;;5.68;3.53;;;-1.70;99.90;;;;;;5017705;28;20057;-81
2023/04/04 02:39:55;;;;;;;7.78;3.53;;;-1.80;99.90;;;;;;5022601;28;20057;-80
2023/04/04 02:42:21;;;;;;;7.82;3.67;;;-1.80;99.90;;;;;;5008189;28;20084;-82
2023/04/04 02:44:46;;;;;;;8.98;3.65;;;-2.00;99.90;;;;;;5008332;28;20038;-80
2023/04/04 02:47:12;;;;;;;9.07;4.05;;;-2.10;99.90;;;;;;5007630;28;20041;-81
2023/04/04 02:49:38;;;;;;;9.23;3.33;;;-2.00;99.90;;;;;;5004773;28;20034;-81
2023/04/04 02:52:03;;;;;;;8.00;3.85;;;-1.80;99.90;;;;;;5006799;28;20048;-81
2023/04/04 02:54:31;;;;;;;10.70;4.15;;;-1.80;99.90;;;;;;5004059;28;20030;-80
2023/04/04 02:56:57;;;;;;;6.57;3.85;;;-1.80;99.90;;;;;;5016715;28;20033;-80
2023/04/04 02:59:23;;;;;;;8.02;4.50;;;-1.00;99.90;;;;;;5005881;28;20041;-80
2023/04/04 03:01:55;;;;;;;8.95;4.03;;;-2.30;99.90;;;;;;5001602;28;20048;-81
2023/04/04 03:04:21;;;;;;;9.43;3.65;;;-3.40;99.90;;;;;;4999943;28;20117;-81
2023/04/04 03:06:47;;;;;;;11.88;4.68;;;-2.40;99.90;;;;;;5002116;28;20046;-81
2023/04/04 03:09:15;;;;;;;9.75;4.43;;;-1.80;99.90;;;;;;5006145;28;20191;-82
2023/04/04 03:11:40;;;;;;;7.18;4.00;;;-2.00;99.90;;;;;;5018778;28;20053;-80
2023/04/04 03:14:07;;;;;;;6.72;3.78;;;-2.20;99.90;;;;;;5022190;28;20175;-82
2023/04/04 03:16:33;;;;;;;8.93;5.03;;;-2.10;99.90;;;;;;5014377;28;20030;-81
2023/04/04 03:19:01;;;;;;;12.02;4.10;;;-2.20;99.90;;;;;;5014900;28;20445;-81
2023/04/04 03:21:27;;;;;;;7.40;4.00;;;-2.20;99.90;;;;;;4984777;28;20030;-82
2023/04/04 03:23:52;;;;;;;10.20;4.43;;;-2.40;99.90;;;;;;5002332;28;20085;-81
2023/04/04 03:26:20;;;;;;;7.82;4.35;;;-2.40;99.90;;;;;;5013631;28;20478;-81
2023/04/04 03:28:46;;;;;;;10.82;4.97;;;-1.40;99.90;;;;;;5001134;28;20079;-82
2023/04/04 03:31:12;;;;;;;9.40;3.78;;;-3.10;99.90;;;;;;5000763;28;20033;-81
2023/04/04 03:33:41;;;;;;;9.02;4.38;;;-2.40;99.90;;;;;;5003439;28;20080;-81
2023/04/04 03:36:11;;;;;;;8.15;4.18;;;-2.20;99.90;;;;;;5017963;28;20037;-81
2023/04/04 03:38:37;;;;;;;9.23;4.88;;;-2.50;99.90;;;;;;5021298;28;20038;-80
2023/04/04 03:41:03;;;;;;;9.05;4.10;;;-2.30;99.90;;;;;;4986257;28;20168;-81
2023/04/04 03:43:29;;;;;;;7.78;3.92;;;-1.00;99.90;;;;;;4984502;28;20430;-81
2023/04/04 03:45:59;;;;;;;9.38;4.13;;;-1.80;99.90;;;;;;5005897;28;20440;-81
2023/04/04 03:48:26;;;;;;;9.30;4.13;;;-2.30;99.90;;;;;;5001698;28;20057;-81
2023/04/04 03:50:51;;;;;;;6.78;3.85;;;-2.20;99.90;;;;;;5007600;28;20026;-80
2023/04/04 03:53:17;;;;;;;8.15;4.07;;;-2.10;99.90;;;;;;5018875;28;20440;-81
2023/04/04 03:55:42;;;;;;;10.18;4.50;;;-2.20;99.90;;;;;;5006042;28;20034;-81
2023/04/04 03:58:08;;;;;;;11.32;4.88;;;-2.60;99.90;;;;;;5006349;28;20120;-81
2023/04/04 04:00:34;;;;;;;9.73;4.47;;;-2.60;99.90;;;;;;5015710;28;20037;-78
2023/04/04 04:02:59;;;;;;;7.13;4.20;;;-2.50;99.90;;;;;;5008828;28;20029;-81
2023/04/04 04:05:25;;;;;;;6.93;3.85;;;-2.70;99.90;;;;;;5004385;28;20030;-80
2023/04/04 04:07:51;;;;;;;10.93;4.82;;;-2.80;99.90;;;;;;5004242;28;20030;-81
2023/04/04 04:10:17;;;;;;;7.72;4.43;;;-2.60;99.90;;;;;;4987291;28;20038;-79
2023/04/04 04:12:43;;;;;;;9.68;4.97;;;-1.90;99.90;;;;;;5019363;28;20164;-80
2023/04/04 04:15:08;;;;;;;9.60;5.00;;;-2.50;99.90;;;;;;5013481;28;20730;-80
2023/04/04 04:17:38;;;;;;;11.40;5.68;;;-2.40;99.90;;;;;;5007512;28;20026;-81
2023/04/04 04:20:04;;;;;;;6.75;4.70;;;-1.70;99.90;;;;;;5003725;28;20524;-83
2023/04/04 04:22:30;;;;;;;9.55;5.07;;;-2.60;99.90;;;;;;5008121;28;20405;-82
2023/04/04 04:24:55;;;;;;;8.55;5.28;;;-2.60;99.90;;;;;;5002939;28;20029;-82
2023/04/04 04:27:22;;;;;;;9.13;5.57;;;-2.60;99.90;;;;;;5007429;28;20456;-81
2023/04/04 04:29:48;;;;;;;13.05;5.88;;;-2.70;99.90;;;;;;4996508;28;20041;-82
2023/04/04 04:32:17;;;;;;;10.45;5.25;;;-2.70;99.90;;;;;;5003317;28;20528;-81
2023/04/04 04:34:42;;;;;;;14.70;5.90;;;-2.90;99.90;;;;;;5011406;28;20043;-82
2023/04/04 04:37:08;;;;;;;12.38;5.95;;;-2.50;99.90;;;;;;5006812;28;20216;-79
2023/04/04 04:39:34;;;;;;;12.88;6.53;;;-2.60;99.90;;;;;;5018546;28;20120;-81
2023/04/04 04:42:00;;;;;;;9.45;5.30;;;-3.00;99.90;;;;;;5011481;28;20103;-82
2023/04/04 04:44:26;;;;;;;10.88;6.72;;;-3.00;99.90;;;;;;5023378;28;20243;-82
2023/04/04 04:46:53;;;;;;;11.75;6.38;;;-3.40;99.90;;;;;;5022711;28;20513;-80
2023/04/04 04:49:19;;;;;;;13.20;6.10;;;-1.70;99.90;;;;;;5004308;28;20037;-82
2023/04/04 04:51:44;;;;;;;10.13;5.25;;;-3.50;99.90;;;;;;5001605;28;20599;-81
2023/04/04 04:54:10;;;;;;;14.00;6.65;;;-2.90;99.90;;;;;;5023488;28;20064;-82
2023/04/04 04:56:36;;;;;;;12.18;5.50;;;-2.80;99.90;;;;;;5004246;28;20025;-79
2023/04/04 04:59:02;;;;;;;14.13;5.80;;;-2.90;99.90;;;;;;5013519;28;20159;-80
2023/04/04 05:01:28;;;;;;;10.85;6.07;;;-2.80;99.90;;;;;;4986841;28;20037;-81
2023/04/04 05:03:53;;;;;;;11.82;6.20;;;-2.60;99.90;;;;;;5005300;28;20038;-81
2023/04/04 05:06:22;;;;;;;13.52;6.57;;;-2.90;99.90;;;;;;4999669;28;20033;-80
2023/04/04 05:08:47;;;;;;;9.25;5.20;;;-0.80;99.90;;;;;;5025781;28;20053;-80
2023/04/04 05:11:13;;;;;;;9.95;5.72;;;-2.70;99.90;;;;;;5001059;28;20616;-80
2023/04/04 05:13:39;;;;;;;15.45;5.80;;;-2.30;99.90;;;;;;5034532;28;20037;-81
2023/04/04 05:16:12;;;;;;;17.35;6.68;;;-2.40;99.90;;;;;;5008820;28;20639;-80
2023/04/04 05:18:39;;;;;;;11.60;5.00;;;-2.70;99.90;;;;;;5005302;28;20033;-80
2023/04/04 05:21:12;;;;;;;14.20;5.43;;;-2.80;99.90;;;;;;5008423;28;20038;-80
2023/04/04 05:23:38;;;;;;;15.13;6.80;;;-2.00;99.90;;;;;;4990772;28;20053;-80
2023/04/04 05:26:03;;;;;;;13.75;4.88;;;-2.70;99.90;;;;;;4995173;28;20049;-80
2023/04/04 05:28:29;;;;;;;10.75;5.85;;;-3.20;99.90;;;;;;5008254;28;20750;-80
2023/04/04 05:30:55;;;;;;;7.80;5.13;;;-2.50;99.90;;;;;;5011108;28;20671;-80
2023/04/04 05:33:22;;;;;;;14.65;6.13;;;-2.70;99.90;;;;;;5004921;28;20053;-79
2023/04/04 05:35:48;;;;;;;10.13;4.53;;;-2.70;99.90;;;;;;5023433;28;20036;-80
2023/04/04 05:38:13;;;;;;;9.55;4.70;;;-2.80;99.90;;;;;;5001546;28;20041;-79
2023/04/04 05:40:39;;;;;;;11.18;4.72;;;-3.30;99.90;;;;;;5030613;28;20466;-79
2023/04/04 05:43:05;;;;;;;9.23;5.40;;;-2.90;99.90;;;;;;5020166;28;20112;-78
2023/04/04 05:45:30;;;;;;;10.10;5.65;;;-2.90;99.90;;;;;;5004354;28;20433;-79
2023/04/04 05:47:56;;;;;;;10.90;5.70;;;-2.60;99.90;;;;;;5021116;28;20030;-80
2023/04/04 05:50:22;;;;;;;9.05;5.50;;;-2.60;99.90;;;;;;5006845;28;20109;-79
2023/04/04 05:52:47;;;;;;;10.35;6.10;;;-2.70;99.90;;;;;;5004135;28;20033;-79
2023/04/04 05:55:13;;;;;;;14.45;6.43;;;-2.90;99.90;;;;;;5015017;28;20052;-79
2023/04/04 05:57:48;;;;;;;14.18;6.07;;;-2.70;99.90;;;;;;5019984;28;20384;-79
2023/04/04 06:00:16;;;;;;;12.77;4.88;;;-3.10;99.90;;;;;;4994211;28;20099;-79
2023/04/04 06:02:43;;;;;;;14.32;8.02;;;-2.50;99.90;;;;;;5006061;28;20026;-80
2023/04/04 06:05:09;;;;;;;14.10;8.00;;;-2.50;99.90;;;;;;5008726;28;20056;-79
2023/04/04 06:07:35;;;;;;;14.52;7.88;;;-2.30;99.90;;;;;;5031722;28;20018;-79
2023/04/04 06:10:00;;;;;;;16.30;8.05;;;-1.90;99.90;;;;;;5011527;28;20552;-79
2023/04/04 06:12:29;;;;;;;16.45;8.10;;;-3.00;99.90;;;;;;4999258;28;20152;-80
2023/04/04 06:14:54;;;;;;;19.02;8.88;;;-2.40;99.90;;;;;;5019168;28;20041;-80
2023/04/04 06:17:20;;;;;;;18.92;8.90;;;-2.20;99.90;;;;;;5008171;28;20037;-80
2023/04/04 06:19:46;;;;;;;15.63;8.90;;;-2.80;99.90;;;;;;5005241;28;20042;-80
2023/04/04 06:22:11;;;;;;;17.63;8.45;;;-1.70;99.90;;;;;;5007832;28;20045;-81
2023/04/04 06:24:37;;;;;;;17.92;9.52;;;-1.90;99.90;;;;;;5030688;28;20029;-80
2023/04/04 06:27:02;;;;;;;19.27;9.35;;;-1.90;99.90;;;;;;5004981;28;20021;-80
2023/04/04 06:29:28;;;;;;;18.23;9.90;;;-1.60;99.90;;;;;;5002513;28;20168;-80
2023/04/04 06:31:53;;;;;;;23.05;11.35;;;-1.70;99.90;;;;;;5000817;28;20041;-80
2023/04/04 06:34:22;;;;;;;16.42;9.20;;;-1.60;99.90;;;;;;5004214;28;20038;-80
2023/04/04 06:36:47;;;;;;;24.42;11.00;;;-1.50;99.90;;;;;;5016788;28;20030;-80
2023/04/04 06:39:13;;;;;;;16.23;10.25;;;-1.30;99.90;;;;;;5001841;28;20072;-81
2023/04/04 06:41:38;;;;;;;24.52;10.73;;;-1.10;99.90;;;;;;5005401;28;20112;-80
2023/04/04 06:44:04;;;;;;;25.63;11.95;;;-1.00;99.90;;;;;;5004368;28;20037;-81
2023/04/04 06:46:31;;;;;;;20.67;11.23;;;-1.00;99.90;;;;;;5013378;28;20502;-81
2023/04/04 06:48:57;;;;;;;17.45;11.32;;;-0.90;99.90;;;;;;5018205;28;20745;-80
2023/04/04 06:51:27;;;;;;;20.05;11.18;;;-0.80;99.90;;;;;;4987451;28;20502;-81
2023/04/04 06:53:55;;;;;;;19.52;11.45;;;-1.10;99.90;;;;;;5018371;28;20037;-80
2023/04/04 06:56:21;;;;;;;19.20;11.57;;;-0.80;99.90;;;;;;5005566;28;20040;-81
2023/04/04 06:58:47;;;;;;;17.65;12.23;;;-0.80;99.90;;;;;;5004529;28;20046;-81
2023/04/04 07:01:14;;;;;;;19.90;11.77;;;-0.30;99.90;;;;;;5000528;28;20391;-80
2023/04/04 07:03:43;;;;;;;16.38;9.20;;;-0.20;99.90;;;;;;5020539;28;20400;-81
2023/04/04 07:06:12;;;;;;;17.92;11.13;;;0.50;99.90;;;;;;5032195;28;20079;-80
2023/04/04 07:08:38;;;;;;;18.52;11.60;;;0.70;99.90;;;;;;4998188;28;20048;-81
2023/04/04 07:11:05;;;;;;;25.38;12.45;;;1.40;99.90;;;;;;4980913;28;20580;-80
2023/04/04 07:13:31;;;;;;;22.90;12.68;;;0.20;99.90;;;;;;5001292;28;20489;-80
2023/04/04 07:15:56;;;;;;;19.85;11.38;;;0.10;99.90;;;;;;5015370;28;20040;-81
2023/04/04 07:18:22;;;;;;;19.73;12.32;;;0.30;99.90;;;;;;5005216;28;20033;-80
2023/04/04 07:20:47;;;;;;;17.05;9.05;;;0.70;99.90;;;;;;5001839;28;20458;-80
2023/04/04 07:23:14;;;;;;;13.10;8.48;;;1.40;99.90;;;;;;5005774;28;20044;-80
2023/04/04 07:25:40;;;;;;;23.77;11.27;;;1.30;99.90;;;;;;5009783;28;20498;-80
2023/04/04 07:28:05;;;;;;;16.90;11.48;;;1.80;99.90;;;;;;5015471;28;20040;-79
2023/04/04 07:30:32;;;;;;;19.33;9.48;;;1.40;99.90;;;;;;4998788;28;20141;-79
2023/04/04 07:32:59;;;;;;;21.02;11.20;;;1.30;99.90;;;;;;5020680;28;20044;-80
2023/04/04 07:35:24;;;;;;;19.48;10.07;;;1.10;99.90;;;;;;4993953;28;20034;-79
2023/04/04 07:37:51;;;;;;;19.70;9.90;;;1.70;99.90;;;;;;5017492;28;20064;-80
2023/04/04 07:40:16;;;;;;;20.88;9.88;;;1.80;99.90;;;;;;5014485;28;20052;-80
2023/04/04 07:42:46;;;;;;;15.88;8.63;;;1.80;99.90;;;;;;5013140;28;20113;-79
2023/04/04 07:45:57;;;;;;;13.13;8.13;;;2.20;99.90;;;;;;4984867;28;20038;-80
2023/04/04 07:48:22;;;;;;;10.80;7.45;;;3.50;99.90;;;;;;5016958;28;20034;-79
2023/04/04 07:50:48;;;;;;;16.02;9.27;;;2.80;99.90;;;;;;5014620;28;20045;-79
2023/04/04 07:53:38;;;;;;;14.93;8.20;;;2.50;99.90;;;;;;5028890;28;20034;-79
2023/04/04 07:56:18;;;;;;;18.80;8.60;;;2.70;99.90;;;;;;5012526;28;20044;-79
2023/04/04 07:58:44;;;;;;;16.27;8.45;;;2.90;99.90;;;;;;4980614;28;20520;-80
2023/04/04 08:01:09;;;;;;;11.23;7.45;;;2.20;99.90;;;;;;5006514;28;20030;-80
2023/04/04 08:03:35;;;;;;;9.25;6.00;;;4.10;99.90;;;;;;5032850;28;20034;-79
2023/04/04 08:06:01;;;;;;;8.43;6.13;;;3.20;99.90;;;;;;4997364;28;20028;-80
2023/04/04 08:08:26;;;;;;;10.48;6.50;;;3.40;99.90;;;;;;5015174;28;20490;-80
2023/04/04 08:10:52;;;;;;;9.60;4.80;;;3.60;99.90;;;;;;5007816;28;20060;-80
2023/04/04 08:13:18;;;;;;;15.27;4.75;;;3.80;99.90;;;;;;5007817;28;20192;-80
2023/04/04 08:15:43;;;;;;;5.75;3.63;;;4.00;99.90;;;;;;5016246;28;20200;-79
2023/04/04 08:18:10;;;;;;;8.70;3.20;;;3.70;99.90;;;;;;5007675;28;20490;-80
2023/04/04 08:20:35;;;;;;;4.07;2.83;;;3.90;99.90;;;;;;5008748;28;20508;-79
2023/04/04 08:23:02;;;;;;;7.00;3.50;;;4.00;99.90;;;;;;4995241;28;20029;-79
2023/04/04 08:25:28;;;;;;;9.30;3.20;;;5.80;99.90;;;;;;5002141;28;20025;-79
2023/04/04 08:27:53;;;;;;;8.68;3.13;;;5.00;99.90;;;;;;5002913;28;20029;-80
2023/04/04 08:30:19;;;;;;;7.72;2.67;;;5.00;99.90;;;;;;5015374;28;20087;-79
2023/04/04 08:32:47;;;;;;;3.97;2.53;;;6.10;99.90;;;;;;5006623;28;20072;-81
2023/04/04 08:35:13;;;;;;;8.60;3.40;;;4.10;99.90;;;;;;5004161;28;20668;-81
2023/04/04 08:37:42;;;;;;;5.53;2.85;;;4.80;99.90;;;;;;5004259;28;20080;-79
2023/04/04 08:40:09;;;;;;;5.82;2.97;;;5.00;99.90;;;;;;4990983;28;20084;-79
2023/04/04 08:42:35;;;;;;;4.10;2.45;;;6.00;99.90;;;;;;5027742;28;20497;-79
2023/04/04 08:45:03;;;;;;;4.43;2.03;;;5.40;99.90;;;;;;5018837;28;20056;-78
2023/04/04 08:47:30;;;;;;;3.90;1.98;;;5.30;99.90;;;;;;5003780;28;20042;-79
2023/04/04 08:49:56;;;;;;;13.30;3.75;;;5.10;99.90;;;;;;5017888;28;20120;-79
2023/04/04 08:52:22;;;;;;;5.47;1.77;;;5.60;99.90;;;;;;5016942;28;20140;-79
2023/04/04 08:54:48;;;;;;;7.63;1.77;;;4.60;99.90;;;;;;5003131;28;20036;-79
2023/04/04 08:57:14;;;;;;;2.88;1.17;;;5.40;99.90;;;;;;5016337;28;20045;-79
2023/04/04 08:59:40;;;;;;;6.80;1.73;;;4.80;99.90;;;;;;4993826;28;20460;-79
2023/04/04 09:02:08;;;;;;;3.25;1.40;;;6.80;99.90;;;;;;4994194;28;20496;-79
2023/04/04 09:04:34;;;;;;;10.98;1.48;;;5.00;99.90;;;;;;5013515;28;20161;-79
2023/04/04 09:07:03;;;;;;;5.70;2.25;;;6.20;99.90;;;;;;5004089;28;20066;-79
2023/04/04 09:09:31;;;;;;;4.95;1.30;;;5.20;99.90;;;;;;5013167;28;20034;-79
2023/04/04 09:11:57;;;;;;;5.88;1.65;;;5.20;99.90;;;;;;5020137;28;20029;-79
2023/04/04 09:14:23;;;;;;;4.05;2.00;;;5.50;99.90;;;;;;5020365;28;20720;-79
2023/04/04 09:16:48;;;;;;;5.25;1.73;;;6.30;99.90;;;;;;5023943;28;20030;-79
2023/04/04 09:19:14;;;;;;;3.70;1.85;;;5.60;99.90;;;;;;5006469;28;20072;-79
2023/04/04 09:21:39;;;;;;;7.00;1.50;;;5.60;99.90;;;;;;5016837;28;20652;-79
2023/04/04 09:24:05;;;;;;;2.83;1.80;;;6.80;99.90;;;;;;5005042;28;20056;-80
2023/04/04 09:26:52;;;;;;;3.67;2.00;;;6.10;99.90;;;;;;4997890;28;20417;-79
2023/04/04 09:29:18;;;;;;;;;;;5.70;99.90;;;;;;5008050;28;20409;-79
2023/04/04 09:31:45;;;;;;;4.68;1.92;;;6.00;99.90;;;;;;5015252;28;20004;-80
2023/04/04 09:34:12;;;;;;;7.88;1.88;;;7.30;99.90;;;;;;5003864;28;20149;-79
2023/04/04 09:36:38;;;;;;;2.88;1.73;;;6.60;99.90;;;;;;5021455;28;20759;-79
2023/04/04 09:39:03;;;;;;;4.07;1.38;;;7.80;99.90;;;;;;5008044;28;20121;-79
2023/04/04 09:41:29;;;;;;;3.10;2.08;;;5.90;99.90;;;;;;4999867;28;20038;-79
2023/04/04 09:43:56;;;;;;;3.63;1.67;;;6.90;99.90;;;;;;5007165;28;20026;-79
2023/04/04 09:46:22;;;;;;;3.75;1.75;;;7.00;99.90;;;;;;5018099;28;20080;-78
2023/04/04 09:48:49;;;;;;;5.40;2.40;;;7.80;99.90;;;;;;5015664;28;20041;-80
2023/04/04 09:51:15;;;;;;;4.00;2.15;;;6.50;99.90;;;;;;5009068;28;20152;-79
2023/04/04 09:53:40;;;;;;;4.20;1.83;;;6.30;99.90;;;;;;5000868;28;20569;-79
2023/04/04 09:56:06;;;;;;;3.05;1.40;;;6.40;99.90;;;;;;5019573;28;20064;-79
2023/04/04 09:58:35;;;;;;;4.30;1.40;;;6.20;99.90;;;;;;5035818;28;20033;-80
2023/04/04 10:01:01;;;;;;;6.47;2.20;;;6.40;99.90;;;;;;4995626;28;20026;-79
2023/04/04 10:03:27;;;;;;;5.03;1.98;;;7.40;99.90;;;;;;4984363;28;20038;-79
2023/04/04 10:06:03;;;;;;;5.03;1.83;;;6.40;99.90;;;;;;5021058;28;20037;-79
2023/04/04 10:08:28;;;;;;;5.85;1.60;;;6.30;99.90;;;;;;5027846;28;20041;-78
2023/04/04 10:11:04;;;;;;;7.80;2.30;;;6.00;99.90;;;;;;5017831;28;20041;-78
2023/04/04 10:13:35;;;;;;;5.85;1.92;;;6.80;99.90;;;;;;5006287;28;20729;-77
2023/04/04 10:16:02;;;;;;;3.85;1.50;;;7.00;99.90;;;;;;5008775;28;20035;-79
2023/04/04 10:18:32;;;;;;;3.13;1.75;;;7.30;99.90;;;;;;5006913;28;20420;-79
2023/04/04 10:20:59;;;;;;;7.68;2.40;;;7.10;99.90;;;;;;5015080;28;20033;-78
2023/04/04 10:23:28;;;;;;;5.30;2.00;;;9.10;99.90;;;;;;5032038;28;20505;-79
2023/04/04 10:25:57;;;;;;;4.50;1.73;;;7.10;99.90;;;;;;5014566;28;20032;-78
2023/04/04 10:28:22;;;;;;;4.55;1.73;;;6.70;99.90;;;;;;5004173;28;20033;-78
2023/04/04 10:31:08;;;;;;;4.22;1.50;;;7.30;99.90;;;;;;5014454;28;20120;-78
2023/04/04 10:33:58;;;;;;;5.72;1.70;;;6.90;99.90;;;;;;5032253;28;20438;-78
2023/04/04 10:36:27;;;;;;;4.90;2.00;;;7.10;99.90;;;;;;5017934;28;20152;-78
2023/04/04 10:39:05;;;;;;;3.30;1.77;;;7.10;99.90;;;;;;5032575;28;20494;-78
2023/04/04 10:41:31;;;;;;;7.05;1.80;;;7.70;99.90;;;;;;5000063;28;20528;-78
2023/04/04 10:43:59;;;;;;;4.50;1.70;;;7.60;99.90;;;;;;5003742;28;20033;-78
2023/04/04 10:46:29;;;;;;;4.53;1.45;;;7.60;99.90;;;;;;5008072;28;20516;-78
2023/04/04 10:48:57;;;;;;;6.97;2.22;;;7.80;99.90;;;;;;5032243;28;20061;-78
2023/04/04 10:51:22;;;;;;;3.83;1.88;;;8.50;99.90;;;;;;5005201;28;20111;-78
2023/04/04 10:53:48;;;;;;;6.35;1.98;;;7.40;99.90;;;;;;5017211;28;20493;-77
2023/04/04 10:56:13;;;;;;;4.57;1.67;;;7.60;99.90;;;;;;5004535;28;20406;-77
2023/04/04 10:58:42;;;;;;;6.13;1.50;;;7.50;99.90;;;;;;5008752;28;20083;-79
2023/04/04 11:01:08;;;;;;;4.18;1.80;;;8.20;99.90;;;;;;4992844;28;20578;-78
2023/04/04 11:04:12;;;;;;;3.28;2.08;;;7.60;99.90;;;;;;5016580;28;20093;-78
2023/04/04 11:07:08;;;;;;;4.82;1.60;;;7.50;99.90;;;;;;5015802;28;20044;-79
2023/04/04 11:09:52;;;;;;;4.95;1.92;;;7.80;99.90;;;;;;5008489;28;20117;-79
2023/04/04 11:12:29;;;;;;;4.63;1.65;;;7.60;99.90;;;;;;5020106;28;20080;-79
2023/04/04 11:14:57;;;;;;;4.10;2.03;;;7.90;99.90;;;;;;5014984;28;20504;-79
2023/04/04 11:17:42;;;;;;;4.30;1.60;;;8.30;99.90;;;;;;5018467;28;20112;-79
2023/04/04 11:20:09;;;;;;;3.15;2.05;;;10.30;99.90;;;;;;5001043;28;20044;-79
2023/04/04 11:22:35;;;;;;;7.70;2.28;;;8.60;99.90;;;;;;4997364;28;20062;-80
2023/04/04 11:25:28;;;;;;;4.60;2.10;;;8.50;99.90;;;;;;5005706;28;20034;-79
2023/04/04 11:27:53;;;;;;;3.45;2.00;;;9.00;99.90;;;;;;5005484;28;20033;-79
2023/04/04 11:30:19;;;;;;;4.40;2.20;;;9.10;99.90;;;;;;5013223;28;20053;-79
2023/04/04 11:32:48;;;;;;;4.03;2.03;;;9.60;99.90;;;;;;5016601;28;20048;-80
2023/04/04 11:35:22;;;;;;;3.55;1.88;;;9.20;99.90;;;;;;5004179;28;20444;-79
2023/04/04 11:37:53;;;;;;;4.95;2.20;;;9.30;99.90;;;;;;5015014;28;20498;-79
2023/04/04 11:40:21;;;;;;;4.28;2.35;;;9.60;99.90;;;;;;5011103;28;20598;-79
2023/04/04 11:42:52;;;;;;;6.25;2.95;;;10.30;99.90;;;;;;5001868;28;20109;-79
2023/04/04 11:45:18;;;;;;;7.35;2.90;;;8.60;99.90;;;;;;5004741;28;20037;-79
2023/04/04 11:47:46;;;;;;;4.55;2.25;;;8.50;99.90;;;;;;4989605;28;20091;-79
2023/04/04 11:50:13;;;;;;;5.05;2.30;;;10.00;99.90;;;;;;4998793;28;20125;-79
2023/04/04 11:52:40;;;;;;;4.72;2.45;;;9.30;99.90;;;;;;5003656;28;20088;-78
2023/04/04 11:55:19;;;;;;;3.58;1.80;;;8.80;99.90;;;;;;5005408;28;20032;-78
2023/04/04 11:57:50;;;;;;;3.67;2.17;;;10.50;99.90;;;;;;4985887;28;20382;-79
2023/04/04 12:00:29;;;;;;;4.05;2.47;;;10.10;99.90;;;;;;5005058;28;20042;-78
2023/04/04 12:02:56;;;;;;;6.43;1.80;;;10.50;99.90;;;;;;5002853;28;20068;-78
2023/04/04 12:05:22;;;;;;;6.25;2.65;;;11.20;99.90;;;;;;5004080;28;20095;-79
2023/04/04 12:07:47;;;;;;;3.40;2.00;;;11.40;99.90;;;;;;4995696;28;21025;-79
2023/04/04 12:10:13;;;;;;;7.95;3.33;;;9.80;99.90;;;;;;5006967;28;20125;-78
2023/04/04 12:12:40;;;;;;;2.55;1.83;;;11.30;99.90;;;;;;5002878;28;20093;-78
2023/04/04 12:15:07;;;;;;;6.05;2.45;;;10.20;99.90;;;;;;4990102;28;20036;-78
2023/04/04 12:17:38;;;;;;;4.07;2.00;;;10.10;99.90;;;;;;5001437;28;20038;-78
2023/04/04 12:20:04;;;;;;;6.40;2.17;;;9.90;99.90;;;;;;5004886;28;20045;-78
2023/04/04 12:22:34;;;;;;;6.50;2.50;;;9.90;99.90;;;;;;5012399;28;20052;-78
2023/04/04 12:25:00;;;;;;;7.40;2.72;;;10.50;99.90;;;;;;4999188;28;20045;-78
2023/04/04 12:27:27;;;;;;;4.60;2.13;;;11.60;99.90;;;;;;5011669;28;20038;-78
2023/04/04 12:29:52;;;;;;;3.20;1.95;;;13.20;99.90;;;;;;4999650;28;20482;-79
2023/04/04 12:32:18;;;;;;;5.18;2.65;;;12.50;99.90;;;;;;5003821;28;20068;-79
2023/04/04 12:34:44;;;;;;;4.15;1.63;;;11.70;99.90;;;;;;5017135;28;20409;-78
2023/04/04 12:37:15;;;;;;;4.55;2.00;;;11.40;99.90;;;;;;5004858;28;20045;-78
2023/04/04 12:39:47;;;;;;;3.42;1.80;;;13.70;99.90;;;;;;5012631;28;20073;-79
2023/04/04 12:42:19;;;;;;;4.80;2.00;;;12.80;99.90;;;;;;5017194;28;20115;-78
2023/04/04 12:44:45;;;;;;;4.07;2.25;;;12.40;99.90;;;;;;5002037;28;20465;-79
2023/04/04 12:47:14;;;;;;;3.17;1.75;;;11.10;99.90;;;;;;5018280;28;20029;-78
2023/04/04 12:49:44;;;;;;;2.70;1.77;;;11.30;99.90;;;;;;5014689;28;20037;-78